Time;durP1;ratioP1;P1;durP2;ratioP2;P2;SDS_P1;SDS_P2;PMS_P1;PMS_P2;Temp;Humidity;BMP_temperature;BMP_pressure;BME280_temperature;BME280_humidity;BME280_pressure;Samples;Min_cycle;Max_cycle;Signal;HPM_P1;HPM_P2
2022/05/12 00:00:48;;;;;;;4.53;2.50;;;;;;;22.63;38.52;98510.53;5052436;28;20198;-49
2022/05/12 00:03:16;;;;;;;5.77;2.60;;;;;;;22.75;37.12;98499.88;5050988;28;20251;-49
2022/05/12 00:05:43;;;;;;;5.97;2.50;;;;;;;22.75;37.61;98499.88;5051825;28;20269;-49
2022/05/12 00:08:11;;;;;;;4.33;2.07;;;;;;;22.67;37.83;98497.56;5051574;28;20197;-49
2022/05/12 00:10:39;;;;;;;4.97;2.70;;;;;;;22.63;38.07;98512.38;5050712;28;20207;-49
2022/05/12 00:13:06;;;;;;;7.40;2.50;;;;;;;22.62;37.94;98508.94;5052192;28;20213;-50
2022/05/12 00:15:36;;;;;;;4.00;2.87;;;;;;;22.55;38.63;98526.84;5051939;28;20220;-49
2022/05/12 00:18:06;;;;;;;6.07;2.80;;;;;;;22.53;38.73;98518.28;5051930;28;20207;-49
2022/05/12 00:20:36;;;;;;;4.33;2.70;;;;;;;22.50;38.54;98524.88;5052056;28;20225;-49
2022/05/12 00:23:09;;;;;;;3.23;2.53;;;;;;;22.49;38.25;98522.47;5051611;28;20607;-51
2022/05/12 00:25:36;;;;;;;8.63;2.90;;;;;;;22.49;38.42;98533.88;5048909;28;20212;-50
2022/05/12 00:28:04;;;;;;;10.33;2.97;;;;;;;22.51;38.48;98534.47;5051777;28;20197;-50
2022/05/12 00:30:31;;;;;;;10.50;2.60;;;;;;;22.44;38.71;98522.31;5051569;28;20198;-49
2022/05/12 00:33:00;;;;;;;8.57;3.00;;;;;;;22.40;39.15;98530.75;5051727;28;20666;-49
2022/05/12 00:35:27;;;;;;;5.77;2.90;;;;;;;22.39;39.33;98536.28;5050126;28;20330;-49
2022/05/12 00:37:55;;;;;;;7.13;3.60;;;;;;;22.40;39.73;98548.53;5051581;28;20206;-49
2022/05/12 00:40:24;;;;;;;10.23;3.27;;;;;;;22.33;39.16;98538.03;5051646;28;20582;-49
2022/05/12 00:42:59;;;;;;;6.03;2.93;;;;;;;22.29;39.43;98546.66;5051347;28;20193;-49
2022/05/12 00:45:27;;;;;;;6.20;3.47;;;;;;;22.24;39.64;98555.34;5050986;28;21014;-49
2022/05/12 00:47:54;;;;;;;7.30;3.33;;;;;;;22.18;39.58;98545.63;5051571;28;20186;-49
2022/05/12 00:50:29;;;;;;;5.60;2.80;;;;;;;22.17;39.43;98550.16;5051681;28;20285;-49
2022/05/12 00:52:57;;;;;;;7.80;3.47;;;;;;;22.10;39.70;98558.22;5051313;28;20278;-50
2022/05/12 00:55:31;;;;;;;6.17;3.20;;;;;;;22.04;40.01;98559.13;5048207;28;20693;-50
2022/05/12 00:58:01;;;;;;;5.97;2.93;;;;;;;22.04;40.09;98555.66;5049125;28;20206;-49
2022/05/12 01:00:29;;;;;;;9.07;2.90;;;;;;;21.99;40.71;98566.16;5050720;28;20233;-50
2022/05/12 01:02:57;;;;;;;7.87;2.87;;;;;;;21.96;40.68;98568.25;5051380;28;20278;-50
2022/05/12 01:05:27;;;;;;;5.10;3.43;;;;;;;21.86;41.33;98577.78;5050986;28;20216;-49
2022/05/12 01:07:56;;;;;;;5.37;2.67;;;;;;;21.77;41.67;98575.44;5056533;28;20609;-49
2022/05/12 01:10:24;;;;;;;7.10;3.30;;;;;;;21.65;41.58;98572.75;5042131;28;20192;-49
2022/05/12 01:12:53;;;;;;;6.43;3.10;;;;;;;21.53;42.16;98579.81;5047943;28;20669;-49
2022/05/12 01:15:24;;;;;;;10.93;3.53;;;;;;;21.39;42.64;98585.28;5038616;28;20357;-49
2022/05/12 01:18:00;;;;;;;6.47;3.37;;;;;;;21.35;43.25;98581.44;5045848;28;20285;-49
2022/05/12 01:20:29;;;;;;;8.50;3.23;;;;;;;21.29;44.03;98590.31;5063452;28;20196;-49
2022/05/12 01:23:02;;;;;;;7.47;2.90;;;;;;;21.28;44.02;98591.34;5071780;28;20580;-50
2022/05/12 01:25:31;;;;;;;6.10;3.00;;;;;;;21.27;44.57;98596.88;5071315;28;20619;-51
2022/05/12 01:27:58;;;;;;;7.40;3.20;;;;;;;21.21;44.14;98607.34;5071707;28;20194;-50
2022/05/12 01:30:43;;;;;;;6.07;3.40;;;;;;;21.21;44.14;98615.31;5072140;28;20345;-50
2022/05/12 01:33:11;;;;;;;7.80;2.97;;;;;;;21.15;44.30;98621.50;5071603;28;20237;-49
2022/05/12 01:35:38;;;;;;;6.17;3.30;;;;;;;21.12;44.90;98619.28;5057393;28;20823;-50
2022/05/12 01:38:05;;;;;;;4.60;3.17;;;;;;;21.04;44.76;98620.41;5057410;28;20305;-50
2022/05/12 01:40:34;;;;;;;5.73;2.60;;;;;;;21.01;44.78;98622.66;5055859;28;20186;-50
2022/05/12 01:43:01;;;;;;;5.40;2.73;;;;;;;20.93;45.29;98629.06;5056846;28;20228;-50
2022/05/12 01:45:28;;;;;;;5.47;3.20;;;;;;;20.85;45.33;98632.00;5071003;28;20601;-50
2022/05/12 01:47:56;;;;;;;6.57;2.93;;;;;;;20.81;45.37;98641.41;5070029;28;20200;-50
2022/05/12 01:50:23;;;;;;;5.90;2.70;;;;;;;20.80;45.44;98643.25;5061092;28;20274;-50
2022/05/12 01:52:51;;;;;;;3.77;2.37;;;;;;;20.72;46.17;98641.66;5063947;28;20210;-50
2022/05/12 01:55:20;;;;;;;6.23;2.63;;;;;;;20.67;46.38;98646.81;5071330;28;20205;-50
2022/05/12 01:58:08;;;;;;;5.57;2.30;;;;;;;20.62;45.93;98649.28;5070996;28;20400;-50
2022/05/12 02:00:36;;;;;;;4.67;2.80;;;;;;;20.59;46.31;98644.41;5071069;28;20193;-50
2022/05/12 02:03:21;;;;;;;3.50;2.30;;;;;;;20.55;46.52;98648.53;5071604;28;20565;-49
2022/05/12 02:05:49;;;;;;;10.23;2.53;;;;;;;20.52;47.23;98654.25;5050485;28;20360;-50
2022/05/12 02:08:17;;;;;;;6.97;2.50;;;;;;;20.48;47.33;98665.28;5069526;28;20273;-49
2022/05/12 02:10:47;;;;;;;10.30;2.90;;;;;;;20.46;47.45;98659.38;5049200;28;20289;-50
2022/05/12 02:13:18;;;;;;;3.30;2.33;;;;;;;20.47;47.51;98662.88;5068952;28;20273;-50
2022/05/12 02:15:46;;;;;;;4.73;2.10;;;;;;;20.45;47.79;98667.56;5070624;28;20973;-50
2022/05/12 02:18:13;;;;;;;3.17;1.80;;;;;;;20.42;48.02;98666.16;5070994;28;20197;-50
2022/05/12 02:20:41;;;;;;;4.33;2.20;;;;;;;20.37;47.87;98668.63;5071127;28;20266;-51
2022/05/12 02:23:08;;;;;;;4.80;2.30;;;;;;;20.33;48.56;98665.59;5071168;28;20208;-51
2022/05/12 02:25:36;;;;;;;4.67;2.50;;;;;;;20.27;48.97;98669.09;5070915;28;20760;-50
2022/05/12 02:28:04;;;;;;;4.43;2.33;;;;;;;20.24;49.26;98668.72;5070836;28;20191;-50
2022/05/12 02:30:33;;;;;;;5.60;2.07;;;;;;;20.27;49.00;98673.56;5058060;28;20194;-51
2022/05/12 02:33:01;;;;;;;3.83;1.97;;;;;;;20.30;48.77;98678.47;5064449;28;20185;-50
2022/05/12 02:35:30;;;;;;;3.13;2.03;;;;;;;20.24;49.04;98674.84;5072115;28;20208;-50
2022/05/12 02:37:58;;;;;;;6.60;2.20;;;;;;;20.20;49.47;98685.03;5063489;28;20192;-49
2022/05/12 02:40:28;;;;;;;4.93;2.47;;;;;;;20.19;49.44;98683.41;5073543;28;20289;-49
2022/05/12 02:42:57;;;;;;;3.87;2.30;;;;;;;20.18;49.50;98689.72;5072170;28;20207;-49
2022/05/12 02:45:25;;;;;;;7.00;2.23;;;;;;;20.16;49.90;98702.38;5071675;28;20605;-49
2022/05/12 02:47:54;;;;;;;5.40;2.00;;;;;;;20.13;50.33;98704.66;5073694;28;20197;-49
2022/05/12 02:50:21;;;;;;;6.03;2.70;;;;;;;20.08;50.25;98701.81;5073661;28;20179;-49
2022/05/12 02:52:48;;;;;;;3.30;1.93;;;;;;;20.05;50.05;98703.88;5071949;28;20217;-49
2022/05/12 02:55:15;;;;;;;4.83;1.97;;;;;;;20.03;50.71;98705.13;5069777;28;20215;-49
2022/05/12 02:57:43;;;;;;;4.63;2.10;;;;;;;19.98;50.55;98711.03;5059106;28;20201;-50
2022/05/12 03:00:17;;;;;;;3.33;2.37;;;;;;;19.94;51.12;98711.69;5062192;28;20635;-50
2022/05/12 03:02:44;;;;;;;7.20;2.20;;;;;;;19.88;51.67;98708.81;5069035;28;20549;-50
2022/05/12 03:05:13;;;;;;;5.27;2.03;;;;;;;19.86;52.11;98717.97;5072879;28;20223;-50
2022/05/12 03:07:41;;;;;;;7.07;2.07;;;;;;;19.83;51.31;98721.88;5071796;28;20195;-50
2022/05/12 03:10:11;;;;;;;4.33;1.80;;;;;;;19.79;51.19;98722.47;5073184;28;20650;-50
2022/05/12 03:12:38;;;;;;;4.70;2.20;;;;;;;19.75;51.82;98727.38;5073405;28;20283;-49
2022/05/12 03:15:06;;;;;;;3.23;2.10;;;;;;;19.70;51.71;98735.94;5072947;28;20290;-49
2022/05/12 03:17:35;;;;;;;3.93;1.90;;;;;;;19.65;52.26;98733.09;5073289;28;20193;-49
2022/05/12 03:20:04;;;;;;;5.97;1.67;;;;;;;19.61;52.42;98730.06;5071753;28;20213;-49
2022/05/12 03:22:32;;;;;;;5.30;1.90;;;;;;;19.57;52.27;98736.78;5073158;28;20185;-49
2022/05/12 03:24:59;;;;;;;2.07;1.80;;;;;;;19.54;53.01;98734.56;5072818;28;20216;-50
2022/05/12 03:27:26;;;;;;;3.53;1.70;;;;;;;19.46;52.63;98743.53;5073289;28;20212;-49
2022/05/12 03:29:54;;;;;;;3.10;1.90;;;;;;;19.43;52.87;98732.53;5071444;28;20188;-50
2022/05/12 03:32:20;;;;;;;4.00;2.23;;;;;;;19.38;53.59;98737.63;5049418;28;20197;-50
2022/05/12 03:34:48;;;;;;;4.90;2.00;;;;;;;19.35;53.71;98744.16;5032834;28;20240;-50
2022/05/12 03:37:15;;;;;;;4.50;2.00;;;;;;;19.31;53.55;98743.75;5033371;28;20213;-50
2022/05/12 03:39:44;;;;;;;3.97;1.90;;;;;;;19.20;54.08;98732.97;5031731;28;20224;-50
2022/05/12 03:42:14;;;;;;;6.70;1.70;;;;;;;19.08;54.47;98738.09;5032225;28;20199;-49
2022/05/12 03:44:46;;;;;;;2.87;1.77;;;;;;;18.98;54.66;98741.13;5032797;28;20224;-50
2022/05/12 03:47:14;;;;;;;7.57;2.07;;;;;;;18.89;54.93;98746.56;5032808;28;20296;-49
2022/05/12 03:49:41;;;;;;;3.07;1.53;;;;;;;18.81;55.32;98754.69;5033159;28;20197;-49
2022/05/12 03:52:09;;;;;;;4.77;1.90;;;;;;;18.73;55.73;98753.06;5032896;28;20204;-49
2022/05/12 03:54:36;;;;;;;2.30;1.63;;;;;;;18.67;55.74;98753.03;5032490;28;20205;-50
2022/05/12 03:57:05;;;;;;;5.53;1.73;;;;;;;18.57;56.49;98764.81;5032877;28;20195;-50
2022/05/12 03:59:34;;;;;;;4.40;1.77;;;;;;;18.41;58.23;98766.00;5032797;28;20212;-49
2022/05/12 04:02:01;;;;;;;5.10;2.10;;;;;;;18.38;57.78;98770.88;5031373;28;20291;-49
2022/05/12 04:04:29;;;;;;;2.53;1.70;;;;;;;18.34;57.36;98778.38;5032410;28;20301;-50
2022/05/12 04:06:56;;;;;;;3.97;2.10;;;;;;;18.32;58.82;98774.31;5032573;28;20201;-49
2022/05/12 04:09:23;;;;;;;3.70;1.97;;;;;;;18.28;58.80;98776.50;5032522;28;20191;-50
2022/05/12 04:11:50;;;;;;;1.97;1.60;;;;;;;18.22;59.76;98778.13;5032597;28;20684;-49
2022/05/12 04:14:19;;;;;;;2.47;2.00;;;;;;;18.19;59.18;98781.16;5032031;28;20289;-49
2022/05/12 04:16:46;;;;;;;3.23;1.87;;;;;;;18.15;59.90;98780.72;5032504;28;20198;-49
2022/05/12 04:19:14;;;;;;;5.77;1.90;;;;;;;18.08;60.65;98787.78;5032513;28;20223;-50
2022/05/12 04:21:42;;;;;;;7.40;2.00;;;;;;;18.08;59.88;98787.00;5032529;28;20190;-50
2022/05/12 04:24:10;;;;;;;6.83;1.93;;;;;;;18.11;59.85;98791.88;5043488;28;20615;-49
2022/05/12 04:26:40;;;;;;;5.23;1.80;;;;;;;18.13;59.54;98795.16;5053248;28;20197;-49
2022/05/12 04:29:07;;;;;;;2.60;1.80;;;;;;;18.15;59.97;98795.78;5052542;28;20310;-49
2022/05/12 04:31:36;;;;;;;6.23;2.00;;;;;;;18.10;60.85;98804.25;5064623;28;20259;-49
2022/05/12 04:36:48;;;;;;;4.67;2.00;;;;;;;18.17;59.65;98809.59;5071784;28;20233;-50
2022/05/12 04:39:17;;;;;;;4.83;2.00;;;;;;;18.18;59.71;98816.50;5070325;28;20217;-49
2022/05/12 04:41:45;;;;;;;6.43;2.10;;;;;;;18.19;60.44;98818.16;5071623;28;20187;-50
2022/05/12 04:44:30;;;;;;;3.93;2.10;;;;;;;18.21;60.89;98816.13;5071478;28;20316;-49
2022/05/12 04:46:58;;;;;;;3.43;1.93;;;;;;;18.19;61.21;98823.44;5071616;28;20263;-49
2022/05/12 04:49:26;;;;;;;5.57;2.10;;;;;;;18.18;61.81;98831.53;5071665;28;20214;-50
2022/05/12 04:51:54;;;;;;;3.53;2.03;;;;;;;18.23;61.09;98829.13;5071437;28;20645;-51
2022/05/12 04:54:21;;;;;;;2.67;1.70;;;;;;;18.31;61.53;98836.88;5053730;28;20570;-49
2022/05/12 04:56:48;;;;;;;2.53;1.70;;;;;;;18.35;61.54;98842.63;5054584;28;20199;-52
2022/05/12 04:59:15;;;;;;;6.03;2.10;;;;;;;18.34;60.60;98833.06;5071134;28;20213;-50
2022/05/12 05:01:42;;;;;;;6.17;2.00;;;;;;;18.43;61.18;98853.03;5070047;28;20259;-49
2022/05/12 05:04:11;;;;;;;2.67;1.90;;;;;;;18.43;59.92;98853.81;5070739;28;20206;-52
2022/05/12 05:06:38;;;;;;;5.03;1.83;;;;;;;18.47;61.13;98856.06;5071246;28;20209;-49
2022/05/12 05:09:06;;;;;;;4.10;1.87;;;;;;;18.53;59.36;98855.28;5071192;28;20682;-49
2022/05/12 05:11:33;;;;;;;4.17;1.80;;;;;;;18.56;59.99;98854.91;5071195;28;20833;-49
2022/05/12 05:14:00;;;;;;;2.40;1.60;;;;;;;18.58;59.17;98863.44;5070835;28;20262;-50
2022/05/12 05:16:27;;;;;;;5.40;1.63;;;;;;;18.69;59.58;98865.53;5071294;28;20194;-49
2022/05/12 05:18:54;;;;;;;2.97;1.60;;;;;;;18.87;58.89;98869.47;5071070;28;20195;-49
2022/05/12 05:21:22;;;;;;;5.03;1.53;;;;;;;19.03;58.41;98887.66;5071205;28;20569;-49
2022/05/12 05:23:50;;;;;;;3.57;2.00;;;;;;;19.01;58.45;98879.09;5071099;28;20208;-49
2022/05/12 05:26:18;;;;;;;2.50;1.40;;;;;;;19.12;58.30;98885.63;5071046;28;20219;-49
2022/05/12 05:28:45;;;;;;;2.77;1.30;;;;;;;19.33;57.80;98892.56;5071050;28;20201;-49
2022/05/12 05:31:12;;;;;;;4.23;1.80;;;;;;;19.29;57.42;98895.84;5069649;28;20294;-49
2022/05/12 05:33:39;;;;;;;2.60;1.57;;;;;;;19.31;57.54;98894.59;5070851;28;20574;-49
2022/05/12 05:36:06;;;;;;;2.90;1.60;;;;;;;19.41;57.25;98898.69;5068880;28;20191;-49
2022/05/12 05:38:53;;;;;;;3.73;1.60;;;;;;;19.65;56.89;98899.91;5043307;28;20220;-49
2022/05/12 05:41:19;;;;;;;2.60;1.40;;;;;;;19.56;56.51;98898.53;5031215;28;20232;-50
2022/05/12 05:43:48;;;;;;;3.37;1.70;;;;;;;19.76;56.36;98911.75;5031106;28;20718;-50
2022/05/12 05:46:16;;;;;;;2.63;1.60;;;;;;;19.85;56.51;98912.34;5030767;28;20217;-50
2022/05/12 05:48:46;;;;;;;10.33;1.63;;;;;;;20.06;55.96;98927.28;5031089;28;20566;-50
2022/05/12 05:54:17;;;;;;;1.47;1.20;;;;;;;20.00;56.20;98926.25;5030743;28;20214;-50
2022/05/12 05:56:44;;;;;;;2.07;1.20;;;;;;;19.85;56.78;98926.44;5031111;28;20195;-50
2022/05/12 05:59:11;;;;;;;8.90;1.50;;;;;;;19.83;56.72;98938.22;5030969;28;20212;-51
2022/05/12 06:01:38;;;;;;;5.10;1.58;;;;;;;19.95;56.50;98941.13;5029448;28;20442;-49
2022/05/12 06:04:06;;;;;;;4.63;1.27;;;;;;;20.03;56.65;98949.69;5031072;28;20214;-49
2022/05/12 06:06:32;;;;;;;4.97;1.20;;;;;;;20.08;56.51;98950.91;5033583;28;20218;-50
2022/05/12 06:09:00;;;;;;;3.13;1.20;;;;;;;20.20;56.24;98955.34;5033862;28;20217;-49
2022/05/12 06:11:28;;;;;;;5.33;1.60;;;;;;;20.09;56.03;98950.72;5034994;28;20194;-49
2022/05/12 06:13:56;;;;;;;5.47;1.40;;;;;;;20.10;57.14;98952.34;5035013;28;20191;-51
2022/05/12 06:16:24;;;;;;;6.67;1.70;;;;;;;20.14;56.44;98961.47;5033998;28;20209;-49
2022/05/12 06:18:51;;;;;;;4.37;1.67;;;;;;;20.15;55.14;98957.00;5035492;28;20243;-50
2022/05/12 06:21:18;;;;;;;2.30;1.40;;;;;;;20.02;56.38;98957.84;5034899;28;20222;-49
2022/05/12 06:23:46;;;;;;;4.83;1.40;;;;;;;19.96;57.10;98958.66;5034909;28;20198;-50
2022/05/12 06:26:14;;;;;;;3.03;1.87;;;;;;;20.05;56.97;98954.78;5034662;28;20260;-49
2022/05/12 06:28:45;;;;;;;8.03;2.30;;;;;;;19.98;57.04;98957.41;5033401;28;20194;-49
2022/05/12 06:31:13;;;;;;;4.33;1.60;;;;;;;20.12;56.46;98958.25;5034775;28;20198;-51
2022/05/12 06:33:41;;;;;;;5.43;1.80;;;;;;;20.34;55.58;98961.47;5034774;28;20213;-49
2022/05/12 06:36:08;;;;;;;3.03;1.40;;;;;;;20.55;55.65;98969.38;5032980;28;20727;-49
2022/05/12 06:38:36;;;;;;;4.63;1.60;;;;;;;20.80;55.17;98972.19;5044014;28;20661;-49
2022/05/12 06:41:06;;;;;;;6.07;1.60;;;;;;;20.92;55.71;98975.03;5054639;28;20243;-50
2022/05/12 06:43:33;;;;;;;7.13;1.57;;;;;;;21.04;54.36;98977.81;5053950;28;20191;-48
2022/05/12 06:46:01;;;;;;;4.60;1.83;;;;;;;21.23;54.47;98984.06;5053592;28;20236;-49
2022/05/12 06:48:29;;;;;;;5.50;1.80;;;;;;;21.20;54.54;98979.22;5053763;28;20187;-49
2022/05/12 06:50:55;;;;;;;4.33;1.60;;;;;;;21.26;54.09;98986.28;5052409;28;20195;-50
2022/05/12 06:53:22;;;;;;;6.20;1.80;;;;;;;20.93;54.36;98990.72;5055829;28;20190;-50
2022/05/12 06:55:50;;;;;;;3.87;1.70;;;;;;;20.72;55.43;98994.44;5052115;28;20274;-50
2022/05/12 06:58:17;;;;;;;7.23;1.53;;;;;;;20.51;56.62;98998.16;5050746;28;20276;-49
2022/05/12 07:00:45;;;;;;;4.27;1.40;;;;;;;20.19;56.40;99000.63;5053574;28;20281;-49
2022/05/12 07:03:14;;;;;;;3.97;1.60;;;;;;;20.01;57.66;98996.75;5062110;28;20228;-49
2022/05/12 07:05:41;;;;;;;6.63;1.90;;;;;;;20.11;57.20;98999.03;5048763;28;20223;-49
2022/05/12 07:08:09;;;;;;;5.47;1.53;;;;;;;20.07;57.61;99003.09;5048948;28;20220;-50
2022/05/12 07:10:37;;;;;;;4.43;1.63;;;;;;;20.04;56.92;99006.16;5060237;28;20197;-49
2022/05/12 07:13:04;;;;;;;3.67;1.33;;;;;;;19.91;57.97;98999.81;5074015;28;20197;-50
2022/05/12 07:15:32;;;;;;;4.00;1.60;;;;;;;19.79;57.73;99001.41;5059534;28;20210;-49
2022/05/12 07:18:20;;;;;;;6.30;1.77;;;;;;;19.96;57.95;98998.41;5034703;28;20202;-49
2022/05/12 07:28:59;;;;;;;3.17;1.40;;;;;;;20.53;57.80;98996.13;5049360;28;20194;-50
2022/05/12 07:31:26;;;;;;;5.70;1.53;;;;;;;20.78;56.25;99000.75;5047449;28;20219;-51
2022/05/12 07:33:55;;;;;;;2.83;1.40;;;;;;;20.87;54.69;99006.69;5046995;28;20202;-51
2022/05/12 07:36:26;;;;;;;5.87;1.60;;;;;;;21.34;54.78;98994.00;5043477;28;20205;-49
2022/05/12 07:38:55;;;;;;;1.57;1.43;;;;;;;21.51;53.89;99002.31;5045582;28;20279;-50
2022/05/12 07:41:22;;;;;;;3.47;1.57;;;;;;;21.57;53.61;98999.84;5053021;28;20232;-50
2022/05/12 07:43:51;;;;;;;5.57;1.50;;;;;;;21.58;53.58;99001.47;5052822;28;20190;-50
2022/05/12 07:46:37;;;;;;;6.63;1.37;;;;;;;21.71;53.43;99000.59;5047461;28;20315;-50
2022/05/12 07:49:06;;;;;;;5.20;1.70;;;;;;;21.67;52.67;99013.50;5052442;28;20194;-50
2022/05/12 07:51:33;;;;;;;2.43;1.47;;;;;;;21.86;52.92;99009.06;5052280;28;20614;-50
2022/05/12 07:54:00;;;;;;;3.83;1.57;;;;;;;22.05;52.58;99006.47;5052095;28;20244;-50
2022/05/12 07:56:29;;;;;;;2.80;1.40;;;;;;;22.50;50.93;99013.50;5052641;28;20209;-50
2022/05/12 07:58:58;;;;;;;4.20;1.60;;;;;;;22.89;50.61;99016.75;5052691;28;20558;-50
2022/05/12 08:01:26;;;;;;;5.80;1.73;;;;;;;22.50;49.97;99016.94;5051983;28;20490;-50
2022/05/12 08:03:53;;;;;;;3.33;2.07;;;;;;;22.35;51.32;99022.59;5052262;28;20198;-50
2022/05/12 08:06:22;;;;;;;4.57;1.70;;;;;;;22.64;50.53;99030.13;5052432;28;20191;-50
2022/05/12 08:08:51;;;;;;;4.13;1.70;;;;;;;22.63;51.10;99028.50;5045466;28;20203;-49
2022/05/12 08:11:19;;;;;;;3.07;1.83;;;;;;;22.91;50.13;99030.66;5050969;28;20553;-50
2022/05/12 08:13:47;;;;;;;3.53;1.80;;;;;;;22.91;49.08;99029.84;5051037;28;20199;-50
2022/05/12 08:16:16;;;;;;;2.33;1.60;;;;;;;23.14;49.40;99031.81;5047744;28;20726;-50
2022/05/12 08:18:45;;;;;;;4.27;2.00;;;;;;;22.86;49.93;99033.16;5053977;28;20211;-50
2022/05/12 08:21:13;;;;;;;4.33;1.50;;;;;;;23.14;50.19;99032.66;5059518;28;20218;-50
2022/05/12 08:23:42;;;;;;;5.43;1.80;;;;;;;23.28;49.87;99029.84;5053974;28;20201;-50
2022/05/12 08:26:09;;;;;;;7.20;1.90;;;;;;;23.33;48.51;99037.97;5050999;28;20195;-50
2022/05/12 08:28:37;;;;;;;3.50;1.47;;;;;;;23.27;48.83;99030.91;5051656;28;20203;-50
2022/05/12 08:31:05;;;;;;;3.63;1.90;;;;;;;23.07;49.19;99037.25;5053504;28;20599;-50
2022/05/12 08:33:31;;;;;;;4.37;1.90;;;;;;;22.89;49.23;99034.56;5052421;28;20338;-51
2022/05/12 08:35:59;;;;;;;4.43;2.30;;;;;;;23.00;50.12;99034.63;5054294;28;20222;-50
2022/05/12 08:38:26;;;;;;;5.60;1.97;;;;;;;23.12;50.10;99031.22;5051141;28;20214;-50
2022/05/12 08:41:08;;;;;;;2.93;1.93;;;;;;;22.95;48.88;99034.50;5051342;28;20212;-50
2022/05/12 08:43:46;;;;;;;2.33;1.80;;;;;;;22.78;50.58;99026.28;5051882;28;20823;-50
2022/05/12 08:46:18;;;;;;;4.63;1.97;;;;;;;22.74;49.85;99033.09;5047360;28;20218;-50
2022/05/12 08:48:47;;;;;;;4.17;2.20;;;;;;;22.12;50.93;99018.69;5046858;28;20195;-50
2022/05/12 08:51:18;;;;;;;3.93;2.00;;;;;;;22.25;52.02;99017.78;5051508;28;20347;-50
2022/05/12 08:53:49;;;;;;;5.40;2.77;;;;;;;21.82;52.66;99029.13;5050655;28;20674;-50
2022/05/12 08:56:21;;;;;;;7.43;1.80;;;;;;;22.32;52.12;99033.66;5048765;28;20672;-50
2022/05/12 08:58:50;;;;;;;5.07;2.07;;;;;;;22.75;51.12;99032.06;5058847;28;20206;-50
2022/05/12 09:01:43;;;;;;;5.80;2.30;;;;;;;23.01;50.90;99030.16;5051338;28;20297;-50
2022/05/12 09:04:29;;;;;;;5.33;2.00;;;;;;;23.55;49.03;99032.16;5051352;28;20215;-49
2022/05/12 09:07:05;;;;;;;5.93;2.30;;;;;;;23.58;48.17;99032.53;5051314;28;20195;-50
2022/05/12 09:09:40;;;;;;;4.20;2.60;;;;;;;23.23;50.15;99030.50;5044794;28;20202;-50
2022/05/12 09:12:20;;;;;;;6.37;2.10;;;;;;;23.46;50.16;99034.31;5051115;28;20197;-50
2022/05/12 09:15:09;;;;;;;4.03;1.93;;;;;;;23.89;48.56;99040.50;5050789;28;20772;-50
2022/05/12 09:17:40;;;;;;;4.33;2.17;;;;;;;23.26;48.02;99034.59;5047010;28;20233;-50
2022/05/12 09:20:09;;;;;;;6.47;2.40;;;;;;;22.87;50.19;99037.44;5051272;28;20208;-50
2022/05/12 09:22:39;;;;;;;5.70;2.30;;;;;;;23.02;49.47;99023.78;5051520;28;20287;-50
2022/05/12 09:25:07;;;;;;;3.40;2.00;;;;;;;23.41;49.21;99024.34;5048866;28;20233;-50
2022/05/12 09:27:38;;;;;;;3.17;1.93;;;;;;;23.19;48.61;99026.63;5049840;28;20219;-50
2022/05/12 09:30:08;;;;;;;5.13;2.10;;;;;;;22.89;49.98;99007.97;5046877;28;20203;-50
2022/05/12 09:32:41;;;;;;;5.30;2.73;;;;;;;22.59;50.97;99014.81;5051006;28;20274;-50
2022/05/12 09:35:27;;;;;;;6.67;3.23;;;;;;;22.92;49.54;99016.31;5048075;28;20220;-50
2022/05/12 09:37:56;;;;;;;2.93;2.63;;;;;;;23.00;49.42;99012.53;5048517;28;20652;-50
2022/05/12 09:40:34;;;;;;;3.37;2.33;;;;;;;23.07;48.72;99012.44;5050687;28;20193;-51
2022/05/12 09:43:18;;;;;;;3.27;2.33;;;;;;;23.23;47.59;99003.09;5052844;28;20639;-50
2022/05/12 09:46:04;;;;;;;3.37;2.17;;;;;;;23.61;47.50;99011.78;5053626;28;20778;-50
2022/05/12 09:48:33;;;;;;;5.37;2.30;;;;;;;23.92;45.85;99002.72;5052434;28;20188;-50
2022/05/12 09:51:32;;;;;;;5.80;2.70;;;;;;;24.14;45.42;99007.53;5054744;28;20486;-50
2022/05/12 09:54:16;;;;;;;10.00;2.80;;;;;;;23.73;47.73;99008.13;5053892;28;20621;-50
2022/05/12 09:56:46;;;;;;;7.57;2.50;;;;;;;24.01;46.75;99003.22;5054378;28;20194;-50
2022/05/12 09:59:24;;;;;;;3.67;2.43;;;;;;;24.30;45.57;98995.34;5053359;28;20187;-50
2022/05/12 10:01:57;;;;;;;6.17;2.30;;;;;;;24.34;46.94;98999.19;5053436;28;20628;-50
2022/05/12 10:10:11;;;;;;;3.43;2.10;;;;;;;24.29;44.72;98999.88;5052595;28;20206;-50
2022/05/12 10:12:46;;;;;;;10.70;3.60;;;;;;;24.05;45.91;98984.91;5054084;28;20202;-50
2022/05/12 10:15:26;;;;;;;5.00;2.40;;;;;;;24.19;44.75;98996.97;5054201;28;20201;-50
2022/05/12 10:17:56;;;;;;;4.20;2.37;;;;;;;24.18;45.51;98992.69;5054668;28;20183;-50
2022/05/12 10:20:26;;;;;;;6.53;2.70;;;;;;;24.27;44.64;98987.81;5052609;28;20583;-50
2022/05/12 10:23:00;;;;;;;3.53;2.50;;;;;;;23.80;44.86;98993.88;5054406;28;20179;-50
2022/05/12 10:25:57;;;;;;;5.30;2.27;;;;;;;23.88;45.49;98986.34;5054478;28;20212;-50
2022/05/12 10:28:32;;;;;;;4.80;2.20;;;;;;;23.67;47.15;98987.69;5053002;28;20552;-51
2022/05/12 10:31:12;;;;;;;7.67;2.70;;;;;;;23.91;46.10;98979.75;5052558;28;20212;-52
2022/05/12 10:33:51;;;;;;;5.77;2.17;;;;;;;24.05;45.91;98985.72;5052757;28;20217;-50
2022/05/12 10:36:36;;;;;;;3.30;2.10;;;;;;;24.54;44.98;98982.00;5054115;28;20218;-50
2022/05/12 10:39:12;;;;;;;8.00;2.13;;;;;;;24.80;44.86;98987.91;5054571;28;20183;-50
2022/05/12 10:41:46;;;;;;;3.90;2.10;;;;;;;24.97;44.37;98974.63;5054086;28;20206;-50
2022/05/12 10:44:32;;;;;;;5.10;2.20;;;;;;;25.10;45.02;98979.69;5053790;28;20314;-50
2022/05/12 10:47:11;;;;;;;3.00;2.27;;;;;;;25.16;42.98;98972.56;5054361;28;20192;-51
2022/05/12 10:49:47;;;;;;;3.30;1.90;;;;;;;25.62;42.06;98968.09;5054375;28;20187;-51
2022/05/12 10:52:24;;;;;;;5.13;2.00;;;;;;;25.60;43.48;98966.69;5053645;28;20187;-51
2022/05/12 10:55:07;;;;;;;4.28;2.20;;;;;;;25.58;41.70;98974.16;5048108;28;20216;-50
2022/05/12 10:57:45;;;;;;;3.67;1.90;;;;;;;25.39;42.37;98970.84;5054890;28;20193;-51
2022/05/12 11:00:32;;;;;;;6.70;2.25;;;;;;;24.86;42.25;98954.94;5063666;28;20198;-51
2022/05/12 11:03:08;;;;;;;3.83;2.00;;;;;;;25.03;41.90;98955.00;5045183;28;20583;-50
2022/05/12 11:05:40;;;;;;;3.53;1.83;;;;;;;25.13;41.92;98962.38;5033600;28;20208;-50
2022/05/12 11:08:13;;;;;;;3.93;1.83;;;;;;;25.11;43.58;98959.94;5032776;28;20291;-50
2022/05/12 11:10:45;;;;;;;6.07;1.75;;;;;;;25.04;43.00;98959.28;5034006;28;20188;-50
2022/05/12 11:13:20;;;;;;;3.27;1.93;;;;;;;24.96;44.19;98948.97;5033873;28;20223;-51
2022/05/12 11:15:54;;;;;;;2.50;1.85;;;;;;;25.24;43.71;98948.16;5035244;28;20571;-50
2022/05/12 11:18:29;;;;;;;4.20;1.90;;;;;;;25.08;42.33;98952.41;5043560;28;20196;-50
2022/05/12 11:21:03;;;;;;;3.03;1.88;;;;;;;25.23;42.27;98951.88;5056778;28;20204;-50
2022/05/12 11:23:47;;;;;;;5.67;1.80;;;;;;;25.14;42.68;98954.13;5066589;28;20194;-50
2022/05/12 11:26:37;;;;;;;4.33;2.03;;;;;;;24.99;43.10;98954.63;5057423;28;20226;-50
2022/05/12 11:32:07;;;;;;;4.50;2.05;;;;;;;25.33;42.76;98961.94;5053737;28;20184;-52
2022/05/12 11:34:38;;;;;;;2.92;1.95;;;;;;;25.57;42.20;98954.66;5053046;28;20706;-50
2022/05/12 11:37:27;;;;;;;3.97;2.00;;;;;;;25.62;42.25;98953.91;5056172;28;20218;-50
2022/05/12 11:39:55;;;;;;;5.27;2.20;;;;;;;25.59;42.97;98952.53;5053551;28;20222;-50
2022/05/12 11:42:24;;;;;;;5.97;3.00;;;;;;;25.91;41.76;98948.50;5053984;28;20230;-50
2022/05/12 11:45:01;;;;;;;5.37;2.13;;;;;;;25.82;41.60;98942.75;5055500;28;20520;-50
2022/05/12 11:48:08;;;;;;;5.50;2.00;;;;;;;26.28;42.18;98939.97;5051973;28;20188;-50
2022/05/12 11:51:04;;;;;;;3.22;2.20;;;;;;;26.16;41.50;98933.91;5052391;28;20216;-50
2022/05/12 11:53:50;;;;;;;8.20;2.40;;;;;;;26.30;41.51;98937.03;5052097;28;20194;-50
2022/05/12 11:56:37;;;;;;;4.77;2.83;;;;;;;26.13;40.82;98943.19;5049883;28;20344;-50
2022/05/12 11:59:17;;;;;;;5.75;2.42;;;;;;;26.38;40.90;98931.25;5050010;28;20207;-50
2022/05/12 12:01:55;;;;;;;4.15;2.00;;;;;;;26.15;40.71;98922.38;5051312;28;20211;-51
2022/05/12 12:04:45;;;;;;;2.83;2.15;;;;;;;26.61;39.81;98926.72;5049616;28;20284;-50
2022/05/12 12:07:37;;;;;;;4.85;2.25;;;;;;;26.53;40.52;98938.66;5052176;28;20184;-51
2022/05/12 12:10:48;;;;;;;4.27;2.43;;;;;;;26.46;40.29;98938.06;5053293;28;20217;-51
2022/05/12 12:13:35;;;;;;;5.15;2.83;;;;;;;26.73;41.39;98931.94;5027361;28;20268;-51
2022/05/12 12:16:06;;;;;;;4.18;2.40;;;;;;;27.05;39.79;98931.25;5032703;28;20215;-50